sensor_id;sensor_type;location;lat;lon;timestamp;temperature;humidity
13854;DHT22;6997;51.782;8.824;2022-10-30T00:01:53;14.50;99.90
13854;DHT22;6997;51.782;8.824;2022-10-30T00:04:19;15.00;99.90
13854;DHT22;6997;51.782;8.824;2022-10-30T00:06:45;14.60;99.90
13854;DHT22;6997;51.782;8.824;2022-10-30T00:09:10;14.60;99.90
13854;DHT22;6997;51.782;8.824;2022-10-30T00:11:36;14.60;99.90
13854;DHT22;6997;51.782;8.824;2022-10-30T00:14:01;14.50;99.90
13854;DHT22;6997;51.782;8.824;2022-10-30T00:16:27;15.40;99.90
13854;DHT22;6997;51.782;8.824;2022-10-30T00:18:53;14.50;99.90
13854;DHT22;6997;51.782;8.824;2022-10-30T00:21:19;14.40;99.90
13854;DHT22;6997;51.782;8.824;2022-10-30T00:23:49;14.30;99.90
13854;DHT22;6997;51.782;8.824;2022-10-30T00:26:15;14.30;99.90
13854;DHT22;6997;51.782;8.824;2022-10-30T00:28:41;14.20;99.90
13854;DHT22;6997;51.782;8.824;2022-10-30T00:31:06;14.20;99.90
13854;DHT22;6997;51.782;8.824;2022-10-30T00:33:32;14.90;99.90
13854;DHT22;6997;51.782;8.824;2022-10-30T00:35:58;14.10;99.90
13854;DHT22;6997;51.782;8.824;2022-10-30T00:38:23;14.10;99.90
13854;DHT22;6997;51.782;8.824;2022-10-30T00:40:49;14.90;99.90
13854;DHT22;6997;51.782;8.824;2022-10-30T00:43:36;14.10;99.90
13854;DHT22;6997;51.782;8.824;2022-10-30T00:46:21;14.00;99.90
13854;DHT22;6997;51.782;8.824;2022-10-30T00:49:16;14.00;99.90
13854;DHT22;6997;51.782;8.824;2022-10-30T00:51:48;14.00;99.90
13854;DHT22;6997;51.782;8.824;2022-10-30T00:54:17;14.70;99.90
13854;DHT22;6997;51.782;8.824;2022-10-30T00:56:45;13.80;99.90
13854;DHT22;6997;51.782;8.824;2022-10-30T00:59:16;13.80;99.90
13854;DHT22;6997;51.782;8.824;2022-10-30T01:01:44;13.80;99.90
13854;DHT22;6997;51.782;8.824;2022-10-30T01:04:10;13.70;99.90
13854;DHT22;6997;51.782;8.824;2022-10-30T01:06:39;13.70;99.90
13854;DHT22;6997;51.782;8.824;2022-10-30T01:09:07;13.70;99.90
13854;DHT22;6997;51.782;8.824;2022-10-30T01:11:32;13.70;99.90
13854;DHT22;6997;51.782;8.824;2022-10-30T01:14:01;13.70;99.90
13854;DHT22;6997;51.782;8.824;2022-10-30T01:22:01;13.70;99.90
13854;DHT22;6997;51.782;8.824;2022-10-30T01:32:50;13.80;99.90
13854;DHT22;6997;51.782;8.824;2022-10-30T01:40:39;14.40;99.90
13854;DHT22;6997;51.782;8.824;2022-10-30T01:43:08;13.90;99.90
13854;DHT22;6997;51.782;8.824;2022-10-30T02:00:09;13.80;99.90
13854;DHT22;6997;51.782;8.824;2022-10-30T02:02:35;13.80;99.90
13854;DHT22;6997;51.782;8.824;2022-10-30T02:05:02;13.70;99.90
13854;DHT22;6997;51.782;8.824;2022-10-30T02:07:29;13.70;99.90
13854;DHT22;6997;51.782;8.824;2022-10-30T02:09:54;13.80;99.90
13854;DHT22;6997;51.782;8.824;2022-10-30T02:12:21;14.60;99.90
13854;DHT22;6997;51.782;8.824;2022-10-30T02:14:52;14.40;99.90
13854;DHT22;6997;51.782;8.824;2022-10-30T02:17:19;13.70;99.90
13854;DHT22;6997;51.782;8.824;2022-10-30T02:19:45;13.70;99.90
13854;DHT22;6997;51.782;8.824;2022-10-30T02:22:11;13.70;99.90
13854;DHT22;6997;51.782;8.824;2022-10-30T02:24:37;13.60;99.90
13854;DHT22;6997;51.782;8.824;2022-10-30T02:27:03;13.70;99.90
13854;DHT22;6997;51.782;8.824;2022-10-30T02:29:28;13.70;99.90
13854;DHT22;6997;51.782;8.824;2022-10-30T02:31:54;14.40;99.90
13854;DHT22;6997;51.782;8.824;2022-10-30T02:34:20;14.90;99.90
13854;DHT22;6997;51.782;8.824;2022-10-30T02:36:45;13.80;99.90
13854;DHT22;6997;51.782;8.824;2022-10-30T02:39:11;13.60;99.90
13854;DHT22;6997;51.782;8.824;2022-10-30T02:41:36;13.60;99.90
13854;DHT22;6997;51.782;8.824;2022-10-30T02:44:03;14.60;99.90
13854;DHT22;6997;51.782;8.824;2022-10-30T02:46:28;13.50;99.90
13854;DHT22;6997;51.782;8.824;2022-10-30T02:48:54;13.50;99.90
13854;DHT22;6997;51.782;8.824;2022-10-30T02:51:19;13.50;99.90
13854;DHT22;6997;51.782;8.824;2022-10-30T02:53:45;13.50;99.90
13854;DHT22;6997;51.782;8.824;2022-10-30T02:56:12;13.50;99.90
13854;DHT22;6997;51.782;8.824;2022-10-30T02:58:39;13.50;99.90
13854;DHT22;6997;51.782;8.824;2022-10-30T03:01:12;14.20;99.90
13854;DHT22;6997;51.782;8.824;2022-10-30T03:03:38;13.60;99.90
13854;DHT22;6997;51.782;8.824;2022-10-30T03:06:06;13.60;99.90
13854;DHT22;6997;51.782;8.824;2022-10-30T03:08:33;13.60;99.90
13854;DHT22;6997;51.782;8.824;2022-10-30T03:11:04;13.60;99.90
13854;DHT22;6997;51.782;8.824;2022-10-30T03:13:31;13.60;99.90
13854;DHT22;6997;51.782;8.824;2022-10-30T03:16:01;13.70;99.90
13854;DHT22;6997;51.782;8.824;2022-10-30T03:18:27;14.10;99.90
13854;DHT22;6997;51.782;8.824;2022-10-30T03:20:58;13.60;99.90
13854;DHT22;6997;51.782;8.824;2022-10-30T03:23:24;13.50;99.90
13854;DHT22;6997;51.782;8.824;2022-10-30T03:25:52;13.50;99.90
13854;DHT22;6997;51.782;8.824;2022-10-30T03:28:18;13.40;99.90
13854;DHT22;6997;51.782;8.824;2022-10-30T03:30:43;13.50;99.90
13854;DHT22;6997;51.782;8.824;2022-10-30T03:33:09;13.50;99.90
13854;DHT22;6997;51.782;8.824;2022-10-30T03:35:35;14.00;99.90
13854;DHT22;6997;51.782;8.824;2022-10-30T03:38:01;14.20;99.90
13854;DHT22;6997;51.782;8.824;2022-10-30T03:40:26;13.20;99.90
13854;DHT22;6997;51.782;8.824;2022-10-30T03:42:52;13.30;99.90
13854;DHT22;6997;51.782;8.824;2022-10-30T03:45:17;13.30;99.90
13854;DHT22;6997;51.782;8.824;2022-10-30T03:47:43;13.20;99.90
13854;DHT22;6997;51.782;8.824;2022-10-30T03:50:09;13.20;99.90
13854;DHT22;6997;51.782;8.824;2022-10-30T03:52:34;13.10;99.90
13854;DHT22;6997;51.782;8.824;2022-10-30T03:55:00;13.10;99.90
13854;DHT22;6997;51.782;8.824;2022-10-30T03:57:25;13.00;99.90
13854;DHT22;6997;51.782;8.824;2022-10-30T03:59:51;13.10;99.90
13854;DHT22;6997;51.782;8.824;2022-10-30T04:02:16;13.00;99.90
13854;DHT22;6997;51.782;8.824;2022-10-30T04:04:42;13.70;99.90
13854;DHT22;6997;51.782;8.824;2022-10-30T04:07:08;13.00;99.90
13854;DHT22;6997;51.782;8.824;2022-10-30T04:09:33;12.90;99.90
13854;DHT22;6997;51.782;8.824;2022-10-30T04:11:59;13.20;99.90
13854;DHT22;6997;51.782;8.824;2022-10-30T04:14:24;12.90;99.90
13854;DHT22;6997;51.782;8.824;2022-10-30T04:16:50;12.80;99.90
13854;DHT22;6997;51.782;8.824;2022-10-30T04:19:15;13.10;99.90
13854;DHT22;6997;51.782;8.824;2022-10-30T04:21:41;12.80;99.90
13854;DHT22;6997;51.782;8.824;2022-10-30T04:24:08;14.00;99.90
13854;DHT22;6997;51.782;8.824;2022-10-30T04:26:33;13.00;99.90
13854;DHT22;6997;51.782;8.824;2022-10-30T04:28:59;12.90;99.90
13854;DHT22;6997;51.782;8.824;2022-10-30T04:31:24;12.90;99.90
13854;DHT22;6997;51.782;8.824;2022-10-30T04:33:50;13.80;99.90
13854;DHT22;6997;51.782;8.824;2022-10-30T04:36:16;12.90;99.90
13854;DHT22;6997;51.782;8.824;2022-10-30T04:38:42;13.00;99.90
13854;DHT22;6997;51.782;8.824;2022-10-30T04:41:08;13.10;99.90
13854;DHT22;6997;51.782;8.824;2022-10-30T04:43:33;12.80;99.90
13854;DHT22;6997;51.782;8.824;2022-10-30T04:46:03;13.60;99.90
13854;DHT22;6997;51.782;8.824;2022-10-30T04:48:29;12.80;99.90
13854;DHT22;6997;51.782;8.824;2022-10-30T04:50:57;12.70;99.90
13854;DHT22;6997;51.782;8.824;2022-10-30T04:53:23;12.60;99.90
13854;DHT22;6997;51.782;8.824;2022-10-30T04:55:53;12.70;99.90
13854;DHT22;6997;51.782;8.824;2022-10-30T04:58:19;12.60;99.90
13854;DHT22;6997;51.782;8.824;2022-10-30T05:00:44;12.70;99.90
13854;DHT22;6997;51.782;8.824;2022-10-30T05:03:21;12.50;99.90
13854;DHT22;6997;51.782;8.824;2022-10-30T05:05:48;12.40;99.90
13854;DHT22;6997;51.782;8.824;2022-10-30T05:08:19;13.40;99.90
13854;DHT22;6997;51.782;8.824;2022-10-30T05:10:45;12.40;99.90
13854;DHT22;6997;51.782;8.824;2022-10-30T05:13:10;12.40;99.90
13854;DHT22;6997;51.782;8.824;2022-10-30T05:15:37;12.40;99.90
13854;DHT22;6997;51.782;8.824;2022-10-30T05:18:02;12.30;99.90
13854;DHT22;6997;51.782;8.824;2022-10-30T05:20:28;12.30;99.90
13854;DHT22;6997;51.782;8.824;2022-10-30T05:22:57;12.30;99.90
13854;DHT22;6997;51.782;8.824;2022-10-30T05:25:24;12.30;99.90
13854;DHT22;6997;51.782;8.824;2022-10-30T05:27:50;12.30;99.90
13854;DHT22;6997;51.782;8.824;2022-10-30T05:30:15;12.30;99.90
13854;DHT22;6997;51.782;8.824;2022-10-30T05:32:41;12.20;99.90
13854;DHT22;6997;51.782;8.824;2022-10-30T05:35:07;12.20;99.90
13854;DHT22;6997;51.782;8.824;2022-10-30T05:37:33;12.10;99.90
13854;DHT22;6997;51.782;8.824;2022-10-30T05:39:58;12.10;99.90
13854;DHT22;6997;51.782;8.824;2022-10-30T05:42:24;12.20;99.90
13854;DHT22;6997;51.782;8.824;2022-10-30T05:44:49;12.20;99.90
13854;DHT22;6997;51.782;8.824;2022-10-30T05:47:15;12.10;99.90
13854;DHT22;6997;51.782;8.824;2022-10-30T05:49:40;12.10;99.90
13854;DHT22;6997;51.782;8.824;2022-10-30T05:52:06;12.40;99.90
13854;DHT22;6997;51.782;8.824;2022-10-30T05:54:31;12.10;99.90
13854;DHT22;6997;51.782;8.824;2022-10-30T05:56:57;12.20;99.90
13854;DHT22;6997;51.782;8.824;2022-10-30T05:59:23;12.10;99.90
13854;DHT22;6997;51.782;8.824;2022-10-30T06:01:50;11.90;99.90
13854;DHT22;6997;51.782;8.824;2022-10-30T06:04:17;11.80;99.90
13854;DHT22;6997;51.782;8.824;2022-10-30T06:06:44;11.80;99.90
13854;DHT22;6997;51.782;8.824;2022-10-30T06:09:10;11.80;99.90
13854;DHT22;6997;51.782;8.824;2022-10-30T06:11:35;11.70;99.90
13854;DHT22;6997;51.782;8.824;2022-10-30T06:14:01;11.80;99.90
13854;DHT22;6997;51.782;8.824;2022-10-30T06:16:26;11.90;99.90
13854;DHT22;6997;51.782;8.824;2022-10-30T06:18:52;11.80;99.90
13854;DHT22;6997;51.782;8.824;2022-10-30T06:21:18;11.80;99.90
13854;DHT22;6997;51.782;8.824;2022-10-30T06:23:46;11.80;99.90
13854;DHT22;6997;51.782;8.824;2022-10-30T06:26:12;12.10;99.90
13854;DHT22;6997;51.782;8.824;2022-10-30T06:28:37;11.80;99.90
13854;DHT22;6997;51.782;8.824;2022-10-30T06:31:03;11.70;99.90
13854;DHT22;6997;51.782;8.824;2022-10-30T06:33:29;11.70;99.90
13854;DHT22;6997;51.782;8.824;2022-10-30T06:35:55;11.70;99.90
13854;DHT22;6997;51.782;8.824;2022-10-30T06:41:47;11.70;99.90
13854;DHT22;6997;51.782;8.824;2022-10-30T06:44:13;11.90;99.90
13854;DHT22;6997;51.782;8.824;2022-10-30T06:46:39;11.70;99.90
13854;DHT22;6997;51.782;8.824;2022-10-30T06:49:06;11.80;99.90
13854;DHT22;6997;51.782;8.824;2022-10-30T06:51:33;11.80;99.90
13854;DHT22;6997;51.782;8.824;2022-10-30T06:57:23;11.90;99.90
13854;DHT22;6997;51.782;8.824;2022-10-30T06:59:49;11.90;99.90
13854;DHT22;6997;51.782;8.824;2022-10-30T07:02:16;11.90;99.90
13854;DHT22;6997;51.782;8.824;2022-10-30T07:04:44;11.90;99.90
13854;DHT22;6997;51.782;8.824;2022-10-30T07:13:47;11.90;99.90
13854;DHT22;6997;51.782;8.824;2022-10-30T07:16:13;12.00;99.90
13854;DHT22;6997;51.782;8.824;2022-10-30T07:18:39;11.90;99.90
13854;DHT22;6997;51.782;8.824;2022-10-30T07:21:06;12.00;99.90
13854;DHT22;6997;51.782;8.824;2022-10-30T07:23:32;12.00;99.90
13854;DHT22;6997;51.782;8.824;2022-10-30T07:25:58;12.10;99.90
13854;DHT22;6997;51.782;8.824;2022-10-30T07:49:53;12.30;99.90
13854;DHT22;6997;51.782;8.824;2022-10-30T07:52:19;13.40;99.90
13854;DHT22;6997;51.782;8.824;2022-10-30T07:54:46;13.20;99.90
13854;DHT22;6997;51.782;8.824;2022-10-30T07:57:13;12.50;99.90
13854;DHT22;6997;51.782;8.824;2022-10-30T07:59:40;12.50;99.90
13854;DHT22;6997;51.782;8.824;2022-10-30T08:02:09;12.60;99.90
13854;DHT22;6997;51.782;8.824;2022-10-30T08:04:36;12.70;99.90
13854;DHT22;6997;51.782;8.824;2022-10-30T08:07:33;12.90;99.90
13854;DHT22;6997;51.782;8.824;2022-10-30T08:10:00;13.10;99.90
13854;DHT22;6997;51.782;8.824;2022-10-30T08:12:27;13.70;99.90
13854;DHT22;6997;51.782;8.824;2022-10-30T08:14:53;13.30;99.90
13854;DHT22;6997;51.782;8.824;2022-10-30T08:17:20;13.50;99.90
13854;DHT22;6997;51.782;8.824;2022-10-30T08:19:46;14.10;99.90
13854;DHT22;6997;51.782;8.824;2022-10-30T08:22:13;13.70;99.90
13854;DHT22;6997;51.782;8.824;2022-10-30T08:24:39;13.70;99.90
13854;DHT22;6997;51.782;8.824;2022-10-30T08:27:06;13.60;99.90
13854;DHT22;6997;51.782;8.824;2022-10-30T08:29:31;13.80;99.90
13854;DHT22;6997;51.782;8.824;2022-10-30T08:31:59;13.70;99.90
13854;DHT22;6997;51.782;8.824;2022-10-30T08:34:24;13.80;99.90
13854;DHT22;6997;51.782;8.824;2022-10-30T08:36:52;14.00;99.90
13854;DHT22;6997;51.782;8.824;2022-10-30T08:39:19;14.10;99.90
13854;DHT22;6997;51.782;8.824;2022-10-30T08:41:45;14.20;99.90
13854;DHT22;6997;51.782;8.824;2022-10-30T08:44:11;15.40;99.90
13854;DHT22;6997;51.782;8.824;2022-10-30T08:46:37;14.50;99.90
13854;DHT22;6997;51.782;8.824;2022-10-30T08:49:03;14.60;99.90
13854;DHT22;6997;51.782;8.824;2022-10-30T08:51:33;14.80;99.90
13854;DHT22;6997;51.782;8.824;2022-10-30T08:54:00;14.90;99.90
13854;DHT22;6997;51.782;8.824;2022-10-30T08:56:26;15.00;99.90
13854;DHT22;6997;51.782;8.824;2022-10-30T08:58:51;15.10;99.90
13854;DHT22;6997;51.782;8.824;2022-10-30T09:01:17;15.50;99.90
13854;DHT22;6997;51.782;8.824;2022-10-30T09:03:44;15.60;99.90
13854;DHT22;6997;51.782;8.824;2022-10-30T09:06:10;15.80;99.90
13854;DHT22;6997;51.782;8.824;2022-10-30T09:08:37;15.90;99.90
13854;DHT22;6997;51.782;8.824;2022-10-30T09:11:03;16.10;99.90
13854;DHT22;6997;51.782;8.824;2022-10-30T09:13:30;16.10;99.90
13854;DHT22;6997;51.782;8.824;2022-10-30T09:16:02;16.30;99.90
13854;DHT22;6997;51.782;8.824;2022-10-30T09:18:28;16.30;99.90
13854;DHT22;6997;51.782;8.824;2022-10-30T09:20:54;17.10;99.90
13854;DHT22;6997;51.782;8.824;2022-10-30T09:23:20;16.60;99.90
13854;DHT22;6997;51.782;8.824;2022-10-30T09:25:46;16.60;99.90
13854;DHT22;6997;51.782;8.824;2022-10-30T09:28:12;16.60;99.90
13854;DHT22;6997;51.782;8.824;2022-10-30T09:30:37;16.70;99.90
13854;DHT22;6997;51.782;8.824;2022-10-30T09:33:03;16.90;99.90
13854;DHT22;6997;51.782;8.824;2022-10-30T09:35:29;17.00;99.90
13854;DHT22;6997;51.782;8.824;2022-10-30T09:37:55;17.10;99.90
13854;DHT22;6997;51.782;8.824;2022-10-30T09:43:18;17.40;99.90
13854;DHT22;6997;51.782;8.824;2022-10-30T09:54:20;17.70;99.90
13854;DHT22;6997;51.782;8.824;2022-10-30T09:57:16;17.70;99.90
13854;DHT22;6997;51.782;8.824;2022-10-30T10:00:10;17.60;99.90
13854;DHT22;6997;51.782;8.824;2022-10-30T10:05:47;17.90;99.90
13854;DHT22;6997;51.782;8.824;2022-10-30T10:08:18;17.90;99.90
13854;DHT22;6997;51.782;8.824;2022-10-30T10:10:50;17.90;99.90
13854;DHT22;6997;51.782;8.824;2022-10-30T10:13:29;17.90;99.90
13854;DHT22;6997;51.782;8.824;2022-10-30T10:16:19;17.90;99.90
13854;DHT22;6997;51.782;8.824;2022-10-30T10:21:28;18.00;99.90
13854;DHT22;6997;51.782;8.824;2022-10-30T10:23:59;18.10;99.90
13854;DHT22;6997;51.782;8.824;2022-10-30T10:37:22;18.40;99.90
13854;DHT22;6997;51.782;8.824;2022-10-30T10:43:10;18.60;99.90
13854;DHT22;6997;51.782;8.824;2022-10-30T10:49:04;18.60;99.90
13854;DHT22;6997;51.782;8.824;2022-10-30T10:51:42;18.50;99.90
13854;DHT22;6997;51.782;8.824;2022-10-30T10:54:17;18.60;99.90
13854;DHT22;6997;51.782;8.824;2022-10-30T10:56:46;18.60;99.90
13854;DHT22;6997;51.782;8.824;2022-10-30T10:59:20;18.70;99.90
13854;DHT22;6997;51.782;8.824;2022-10-30T11:04:55;18.80;99.90
13854;DHT22;6997;51.782;8.824;2022-10-30T11:07:30;18.90;99.90
13854;DHT22;6997;51.782;8.824;2022-10-30T11:09:57;19.00;99.90
13854;DHT22;6997;51.782;8.824;2022-10-30T11:12:30;19.20;99.90
13854;DHT22;6997;51.782;8.824;2022-10-30T11:15:35;19.10;99.90
13854;DHT22;6997;51.782;8.824;2022-10-30T11:18:08;19.10;99.90
13854;DHT22;6997;51.782;8.824;2022-10-30T11:23:38;19.30;99.90
13854;DHT22;6997;51.782;8.824;2022-10-30T11:26:24;19.30;99.90
13854;DHT22;6997;51.782;8.824;2022-10-30T11:29:12;19.30;99.90
13854;DHT22;6997;51.782;8.824;2022-10-30T11:31:42;19.20;99.90
13854;DHT22;6997;51.782;8.824;2022-10-30T11:34:24;19.20;99.90
13854;DHT22;6997;51.782;8.824;2022-10-30T11:36:54;19.30;99.90
13854;DHT22;6997;51.782;8.824;2022-10-30T11:39:25;19.50;99.90
13854;DHT22;6997;51.782;8.824;2022-10-30T11:42:02;19.60;99.90
13854;DHT22;6997;51.782;8.824;2022-10-30T11:44:35;19.60;99.90
13854;DHT22;6997;51.782;8.824;2022-10-30T11:47:03;19.60;99.90
13854;DHT22;6997;51.782;8.824;2022-10-30T11:49:42;19.50;99.90
13854;DHT22;6997;51.782;8.824;2022-10-30T11:52:12;19.50;99.90
13854;DHT22;6997;51.782;8.824;2022-10-30T11:54:43;20.20;99.90
13854;DHT22;6997;51.782;8.824;2022-10-30T11:57:22;19.60;99.90
13854;DHT22;6997;51.782;8.824;2022-10-30T11:59:50;19.70;99.90
13854;DHT22;6997;51.782;8.824;2022-10-30T12:04:46;19.80;99.90
13854;DHT22;6997;51.782;8.824;2022-10-30T12:09:45;19.90;99.90
13854;DHT22;6997;51.782;8.824;2022-10-30T12:14:42;20.10;99.90
13854;DHT22;6997;51.782;8.824;2022-10-30T12:17:13;23.90;99.90
13854;DHT22;6997;51.782;8.824;2022-10-30T12:19:49;20.30;99.90
13854;DHT22;6997;51.782;8.824;2022-10-30T12:22:41;20.50;99.90
13854;DHT22;6997;51.782;8.824;2022-10-30T12:27:48;20.60;99.90
13854;DHT22;6997;51.782;8.824;2022-10-30T12:30:21;20.60;99.90
13854;DHT22;6997;51.782;8.824;2022-10-30T12:32:57;20.60;99.90
13854;DHT22;6997;51.782;8.824;2022-10-30T12:43:38;20.60;99.90
13854;DHT22;6997;51.782;8.824;2022-10-30T12:46:29;21.20;99.90
13854;DHT22;6997;51.782;8.824;2022-10-30T12:49:13;21.70;99.90
13854;DHT22;6997;51.782;8.824;2022-10-30T12:51:51;21.80;99.90
13854;DHT22;6997;51.782;8.824;2022-10-30T12:54:35;21.80;99.90
13854;DHT22;6997;51.782;8.824;2022-10-30T12:57:10;21.40;99.90
13854;DHT22;6997;51.782;8.824;2022-10-30T12:59:56;21.30;99.90
13854;DHT22;6997;51.782;8.824;2022-10-30T13:10:32;21.10;99.90
13854;DHT22;6997;51.782;8.824;2022-10-30T13:13:19;21.70;99.90
13854;DHT22;6997;51.782;8.824;2022-10-30T13:15:49;21.00;99.90
13854;DHT22;6997;51.782;8.824;2022-10-30T13:18:20;20.90;99.90
13854;DHT22;6997;51.782;8.824;2022-10-30T13:23:57;20.90;99.90
13854;DHT22;6997;51.782;8.824;2022-10-30T13:26:45;20.90;99.90
13854;DHT22;6997;51.782;8.824;2022-10-30T13:29:35;20.80;99.90
13854;DHT22;6997;51.782;8.824;2022-10-30T13:44:03;20.70;99.90
13854;DHT22;6997;51.782;8.824;2022-10-30T13:47:51;20.60;99.90
13854;DHT22;6997;51.782;8.824;2022-10-30T13:50:00;20.70;99.90
13854;DHT22;6997;51.782;8.824;2022-10-30T13:52:32;20.60;99.90
13854;DHT22;6997;51.782;8.824;2022-10-30T13:55:12;20.50;99.90
13854;DHT22;6997;51.782;8.824;2022-10-30T13:57:46;20.50;99.90
13854;DHT22;6997;51.782;8.824;2022-10-30T14:06:08;20.70;99.90
13854;DHT22;6997;51.782;8.824;2022-10-30T14:11:11;20.60;99.90
13854;DHT22;6997;51.782;8.824;2022-10-30T14:14:02;20.60;99.90
13854;DHT22;6997;51.782;8.824;2022-10-30T14:19:03;20.50;99.90
13854;DHT22;6997;51.782;8.824;2022-10-30T14:24:19;20.30;99.90
13854;DHT22;6997;51.782;8.824;2022-10-30T14:29:39;20.10;99.90
13854;DHT22;6997;51.782;8.824;2022-10-30T14:39:49;19.80;99.90
13854;DHT22;6997;51.782;8.824;2022-10-30T14:42:45;19.70;99.90
13854;DHT22;6997;51.782;8.824;2022-10-30T14:45:22;19.50;99.90
13854;DHT22;6997;51.782;8.824;2022-10-30T14:53:29;19.50;99.90
13854;DHT22;6997;51.782;8.824;2022-10-30T14:58:42;19.40;99.90
13854;DHT22;6997;51.782;8.824;2022-10-30T15:01:31;19.40;99.90
13854;DHT22;6997;51.782;8.824;2022-10-30T15:09:52;19.20;99.90
13854;DHT22;6997;51.782;8.824;2022-10-30T15:12:50;19.10;99.90
13854;DHT22;6997;51.782;8.824;2022-10-30T15:15:20;19.10;99.90
13854;DHT22;6997;51.782;8.824;2022-10-30T15:17:49;19.10;99.90
13854;DHT22;6997;51.782;8.824;2022-10-30T15:20:19;19.00;99.90
13854;DHT22;6997;51.782;8.824;2022-10-30T15:22:55;18.80;99.90
13854;DHT22;6997;51.782;8.824;2022-10-30T15:25:27;16.20;99.90
13854;DHT22;6997;51.782;8.824;2022-10-30T15:51:29;18.00;99.90
13854;DHT22;6997;51.782;8.824;2022-10-30T15:53:59;17.90;99.90
13854;DHT22;6997;51.782;8.824;2022-10-30T16:05:27;17.60;99.90
13854;DHT22;6997;51.782;8.824;2022-10-30T16:07:58;17.60;99.90
13854;DHT22;6997;51.782;8.824;2022-10-30T16:10:32;17.50;99.90
13854;DHT22;6997;51.782;8.824;2022-10-30T16:13:00;17.40;99.90
13854;DHT22;6997;51.782;8.824;2022-10-30T16:15:30;17.30;99.90
13854;DHT22;6997;51.782;8.824;2022-10-30T16:18:18;17.20;99.90
13854;DHT22;6997;51.782;8.824;2022-10-30T16:20:50;17.20;99.90
13854;DHT22;6997;51.782;8.824;2022-10-30T16:23:18;17.10;99.90
13854;DHT22;6997;51.782;8.824;2022-10-30T16:25:45;17.00;99.90
13854;DHT22;6997;51.782;8.824;2022-10-30T16:30:48;16.90;99.90
13854;DHT22;6997;51.782;8.824;2022-10-30T16:33:19;17.50;99.90
13854;DHT22;6997;51.782;8.824;2022-10-30T16:35:48;16.80;99.90
13854;DHT22;6997;51.782;8.824;2022-10-30T16:38:17;16.70;99.90
13854;DHT22;6997;51.782;8.824;2022-10-30T16:40:43;16.80;99.90
13854;DHT22;6997;51.782;8.824;2022-10-30T16:43:30;16.80;99.90
13854;DHT22;6997;51.782;8.824;2022-10-30T16:48:57;16.50;99.90
13854;DHT22;6997;51.782;8.824;2022-10-30T16:51:25;16.50;99.90
13854;DHT22;6997;51.782;8.824;2022-10-30T16:53:52;16.40;99.90
13854;DHT22;6997;51.782;8.824;2022-10-30T16:56:26;16.30;99.90
13854;DHT22;6997;51.782;8.824;2022-10-30T16:58:56;16.20;99.90
13854;DHT22;6997;51.782;8.824;2022-10-30T17:01:25;16.10;99.90
13854;DHT22;6997;51.782;8.824;2022-10-30T17:03:52;16.10;99.90
13854;DHT22;6997;51.782;8.824;2022-10-30T17:08:58;16.00;99.90
13854;DHT22;6997;51.782;8.824;2022-10-30T17:11:43;15.90;99.90
13854;DHT22;6997;51.782;8.824;2022-10-30T17:14:19;16.00;99.90
13854;DHT22;6997;51.782;8.824;2022-10-30T17:16:54;16.00;99.90
13854;DHT22;6997;51.782;8.824;2022-10-30T17:21:58;15.90;99.90
13854;DHT22;6997;51.782;8.824;2022-10-30T17:24:34;15.80;99.90
13854;DHT22;6997;51.782;8.824;2022-10-30T17:27:03;15.80;99.90
13854;DHT22;6997;51.782;8.824;2022-10-30T17:32:27;15.70;99.90
13854;DHT22;6997;51.782;8.824;2022-10-30T17:35:16;15.70;99.90
13854;DHT22;6997;51.782;8.824;2022-10-30T17:37:45;15.60;99.90
13854;DHT22;6997;51.782;8.824;2022-10-30T17:40:12;15.60;99.90
13854;DHT22;6997;51.782;8.824;2022-10-30T17:42:39;15.50;99.90
13854;DHT22;6997;51.782;8.824;2022-10-30T17:45:06;15.50;99.90
13854;DHT22;6997;51.782;8.824;2022-10-30T17:47:35;15.40;99.90
13854;DHT22;6997;51.782;8.824;2022-10-30T17:50:03;15.30;99.90
13854;DHT22;6997;51.782;8.824;2022-10-30T17:52:31;15.30;99.90
13854;DHT22;6997;51.782;8.824;2022-10-30T17:54:57;15.20;99.90
13854;DHT22;6997;51.782;8.824;2022-10-30T17:57:24;15.20;99.90
13854;DHT22;6997;51.782;8.824;2022-10-30T17:59:52;15.20;99.90
13854;DHT22;6997;51.782;8.824;2022-10-30T18:02:20;15.20;99.90
13854;DHT22;6997;51.782;8.824;2022-10-30T18:04:48;15.20;99.90
13854;DHT22;6997;51.782;8.824;2022-10-30T18:07:15;15.20;99.90
13854;DHT22;6997;51.782;8.824;2022-10-30T18:09:41;15.20;99.90
13854;DHT22;6997;51.782;8.824;2022-10-30T18:12:17;15.10;99.90
13854;DHT22;6997;51.782;8.824;2022-10-30T18:14:44;15.30;99.90
13854;DHT22;6997;51.782;8.824;2022-10-30T18:17:12;15.00;99.90
13854;DHT22;6997;51.782;8.824;2022-10-30T18:19:39;15.60;99.90
13854;DHT22;6997;51.782;8.824;2022-10-30T18:22:05;15.00;99.90
13854;DHT22;6997;51.782;8.824;2022-10-30T18:24:31;14.80;99.90
13854;DHT22;6997;51.782;8.824;2022-10-30T18:26:57;14.80;99.90
13854;DHT22;6997;51.782;8.824;2022-10-30T18:29:23;14.70;99.90
13854;DHT22;6997;51.782;8.824;2022-10-30T18:31:50;14.70;99.90
13854;DHT22;6997;51.782;8.824;2022-10-30T18:34:17;14.70;99.90
13854;DHT22;6997;51.782;8.824;2022-10-30T18:36:48;14.70;99.90
13854;DHT22;6997;51.782;8.824;2022-10-30T18:39:16;14.60;99.90
13854;DHT22;6997;51.782;8.824;2022-10-30T18:41:45;14.50;99.90
13854;DHT22;6997;51.782;8.824;2022-10-30T18:48:02;14.50;99.90
13854;DHT22;6997;51.782;8.824;2022-10-30T18:50:29;14.50;99.90
13854;DHT22;6997;51.782;8.824;2022-10-30T18:52:56;14.40;99.90
13854;DHT22;6997;51.782;8.824;2022-10-30T18:55:32;14.30;99.90
13854;DHT22;6997;51.782;8.824;2022-10-30T18:57:59;14.30;99.90
13854;DHT22;6997;51.782;8.824;2022-10-30T19:07:14;14.30;99.90
13854;DHT22;6997;51.782;8.824;2022-10-30T19:09:40;14.20;99.90
13854;DHT22;6997;51.782;8.824;2022-10-30T19:12:09;14.80;99.90
13854;DHT22;6997;51.782;8.824;2022-10-30T19:14:35;14.80;99.90
13854;DHT22;6997;51.782;8.824;2022-10-30T19:17:02;14.10;99.90
13854;DHT22;6997;51.782;8.824;2022-10-30T19:19:27;14.80;99.90
13854;DHT22;6997;51.782;8.824;2022-10-30T19:21:53;14.00;99.90
13854;DHT22;6997;51.782;8.824;2022-10-30T19:24:18;13.90;99.90
13854;DHT22;6997;51.782;8.824;2022-10-30T19:26:44;13.80;99.90
13854;DHT22;6997;51.782;8.824;2022-10-30T19:29:11;13.80;99.90
13854;DHT22;6997;51.782;8.824;2022-10-30T19:31:37;14.00;99.90
13854;DHT22;6997;51.782;8.824;2022-10-30T19:34:03;13.70;99.90
13854;DHT22;6997;51.782;8.824;2022-10-30T19:36:31;13.70;99.90
13854;DHT22;6997;51.782;8.824;2022-10-30T19:38:58;13.50;99.90
13854;DHT22;6997;51.782;8.824;2022-10-30T19:41:24;13.50;99.90
13854;DHT22;6997;51.782;8.824;2022-10-30T19:43:50;14.40;99.90
13854;DHT22;6997;51.782;8.824;2022-10-30T19:46:16;14.30;99.90
13854;DHT22;6997;51.782;8.824;2022-10-30T19:48:42;13.50;99.90
13854;DHT22;6997;51.782;8.824;2022-10-30T19:51:07;13.50;99.90
13854;DHT22;6997;51.782;8.824;2022-10-30T19:53:36;13.50;99.90
13854;DHT22;6997;51.782;8.824;2022-10-30T19:56:01;13.40;99.90
13854;DHT22;6997;51.782;8.824;2022-10-30T19:58:27;13.50;99.90
13854;DHT22;6997;51.782;8.824;2022-10-30T20:00:53;13.40;99.90
13854;DHT22;6997;51.782;8.824;2022-10-30T20:03:19;13.40;99.90
13854;DHT22;6997;51.782;8.824;2022-10-30T20:05:46;13.30;99.90